CheckWX is a tool to help pilots better visualize weather data.  It is not intended as a substitute for an official pre-flight weather briefing.

03:02:33 UTC

ESPE METAR
Vidsel Air Base Airport
Vidsel, Sweden
Current

43 mins ago

ESPE 230220Z AUTO 00000KT 9999 NCD 11/09 Q1015
Observed
Jul-23 @ 02:20 UTC
Visibility
10,000+ meters
Flight Rules
VFR
Cloud Levels
  • Clear skies
Temperature
11°C / 52°F
Dewpoint
C / 48°F
Humidity
88%
Altimeter
29.97" Hg
Pressure
1014.92 hPa
Previous

1 hour ago

ESPE 230150Z AUTO 00000KT 9999 NCD 11/09 Q1015
Observed
Jul-23 @ 01:50 UTC
Visibility
10,000+ meters
Flight Rules
VFR
Cloud Levels
  • Clear skies
Temperature
11°C / 52°F
Dewpoint
C / 48°F
Humidity
88%
Altimeter
29.97" Hg
Pressure
1014.92 hPa
Previous

2 hours ago

ESPE 230120Z AUTO 00000KT 9999 NCD 12/10 Q1015
Observed
Jul-23 @ 01:20 UTC
Visibility
10,000+ meters
Flight Rules
VFR
Cloud Levels
  • Clear skies
Temperature
12°C / 54°F
Dewpoint
10°C / 50°F
Humidity
88%
Altimeter
29.97" Hg
Pressure
1014.92 hPa